Time;durP1;ratioP1;P1;durP2;ratioP2;P2;SDS_P1;SDS_P2;PMS_P1;PMS_P2;Temp;Humidity;BMP_temperature;BMP_pressure;BME280_temperature;BME280_humidity;BME280_pressure;Samples;Min_cycle;Max_cycle;Signal;HPM_P1;HPM_P2
2023/03/14 00:02:03;;;;;;;19.48;5.13;;;9.20;99.90;;;;;;5071709;28;20059;-72
2023/03/14 00:04:28;;;;;;;22.20;5.30;;;9.10;99.90;;;;;;5071721;28;20047;-72
2023/03/14 00:06:54;;;;;;;26.35;6.07;;;9.20;99.90;;;;;;5071878;28;20041;-72
2023/03/14 00:09:20;;;;;;;23.10;5.88;;;9.10;99.90;;;;;;5085638;22;20133;-71
2023/03/14 00:11:45;;;;;;;25.73;5.20;;;9.20;99.90;;;;;;5071751;28;20049;-71
2023/03/14 00:14:11;;;;;;;20.45;6.32;;;9.30;99.90;;;;;;5053498;28;20119;-71
2023/03/14 00:16:37;;;;;;;24.45;6.15;;;9.30;99.90;;;;;;5070212;28;20063;-71
2023/03/14 00:19:02;;;;;;;19.15;6.22;;;9.30;99.90;;;;;;5061811;28;20374;-71
2023/03/14 00:21:28;;;;;;;21.05;5.20;;;9.30;99.90;;;;;;5050681;28;20067;-71
2023/03/14 00:23:54;;;;;;;22.15;5.45;;;9.40;99.90;;;;;;5051393;28;20048;-72
2023/03/14 00:26:21;;;;;;;21.58;4.90;;;9.40;99.90;;;;;;5050862;28;20119;-71
2023/03/14 00:28:47;;;;;;;25.95;5.93;;;9.50;99.90;;;;;;5033947;28;20048;-71
2023/03/14 00:31:15;;;;;;;38.45;6.25;;;9.50;99.90;;;;;;5050653;28;20476;-71
2023/03/14 00:33:42;;;;;;;22.00;5.28;;;9.50;99.90;;;;;;5051555;28;20037;-72
2023/03/14 00:36:17;;;;;;;24.15;6.28;;;9.60;99.90;;;;;;5051810;28;20075;-71
2023/03/14 00:38:45;;;;;;;26.10;6.28;;;9.70;99.90;;;;;;5050496;28;20080;-71
2023/03/14 00:41:14;;;;;;;21.42;4.57;;;9.70;99.90;;;;;;5051486;28;20041;-71
2023/03/14 00:43:40;;;;;;;18.98;4.95;;;9.70;99.90;;;;;;5051111;28;20037;-71
2023/03/14 00:46:06;;;;;;;21.58;4.63;;;9.70;99.90;;;;;;5051600;28;20435;-71
2023/03/14 00:48:32;;;;;;;15.13;4.30;;;9.70;99.90;;;;;;5033649;28;20045;-71
2023/03/14 00:50:58;;;;;;;29.02;4.47;;;9.70;99.90;;;;;;5050672;28;20044;-71
2023/03/14 00:53:23;;;;;;;24.98;5.50;;;9.80;99.90;;;;;;5051234;28;20079;-71
2023/03/14 00:55:49;;;;;;;17.50;4.50;;;9.80;99.90;;;;;;5033342;28;20044;-71
2023/03/14 00:58:17;;;;;;;19.27;6.72;;;9.80;99.90;;;;;;5051304;28;20063;-71
2023/03/14 01:00:43;;;;;;;19.20;4.95;;;9.90;99.90;;;;;;5050382;28;20520;-71
2023/03/14 01:03:10;;;;;;;24.00;4.68;;;9.90;99.90;;;;;;5051110;28;20508;-71
2023/03/14 01:05:35;;;;;;;20.30;4.97;;;10.00;99.90;;;;;;5051305;28;20048;-71
2023/03/14 01:08:02;;;;;;;20.35;4.72;;;10.00;99.90;;;;;;5049790;28;20037;-72
2023/03/14 01:10:27;;;;;;;21.42;5.30;;;10.00;99.90;;;;;;5049739;28;20504;-71
2023/03/14 01:12:53;;;;;;;18.77;5.13;;;10.00;99.90;;;;;;5049704;28;20121;-71
2023/03/14 01:15:18;;;;;;;26.45;5.22;;;10.00;99.90;;;;;;5049496;28;20033;-71
2023/03/14 01:17:44;;;;;;;24.73;5.97;;;10.00;99.90;;;;;;5033425;28;20048;-71
2023/03/14 01:20:13;;;;;;;14.43;4.40;;;10.00;99.90;;;;;;5051075;28;20033;-71
2023/03/14 01:22:39;;;;;;;20.23;4.38;;;10.10;99.90;;;;;;5033145;28;20120;-71
2023/03/14 01:25:14;;;;;;;15.77;4.88;;;10.10;99.90;;;;;;5049531;28;20565;-72
2023/03/14 01:27:40;;;;;;;24.67;4.72;;;10.10;99.90;;;;;;5049854;28;20077;-71
2023/03/14 01:30:07;;;;;;;25.55;5.10;;;10.10;99.90;;;;;;5054499;28;20073;-71
2023/03/14 01:32:33;;;;;;;22.17;4.22;;;10.10;99.90;;;;;;5053531;28;20119;-71
2023/03/14 01:34:58;;;;;;;15.20;4.20;;;10.10;99.90;;;;;;5052914;28;20079;-72
2023/03/14 01:37:24;;;;;;;26.00;5.20;;;10.20;99.90;;;;;;5054386;28;20048;-71
2023/03/14 01:39:50;;;;;;;16.08;4.55;;;10.20;99.90;;;;;;5054319;28;20076;-71
2023/03/14 01:42:15;;;;;;;28.25;6.20;;;10.30;99.90;;;;;;5054669;28;20049;-72
2023/03/14 01:44:47;;;;;;;24.75;5.65;;;10.30;99.90;;;;;;5053333;28;20044;-72
2023/03/14 01:47:12;;;;;;;22.17;4.45;;;10.30;99.90;;;;;;5052828;28;20155;-71
2023/03/14 01:49:38;;;;;;;25.30;5.03;;;10.40;99.90;;;;;;5036239;28;20052;-71
2023/03/14 01:52:25;;;;;;;20.50;4.18;;;10.40;99.90;;;;;;5054199;28;20041;-72
2023/03/14 01:54:55;;;;;;;12.65;3.83;;;10.40;99.90;;;;;;5053492;28;20412;-71
2023/03/14 01:57:35;;;;;;;14.15;3.65;;;10.40;99.90;;;;;;5052955;28;20120;-71
2023/03/14 02:00:14;;;;;;;21.55;4.47;;;10.40;99.90;;;;;;5054038;28;20062;-71
2023/03/14 02:02:43;;;;;;;12.70;3.90;;;10.30;99.90;;;;;;5054126;28;20043;-72
2023/03/14 02:05:10;;;;;;;17.27;4.22;;;10.30;99.90;;;;;;5035942;28;20119;-71
2023/03/14 02:07:46;;;;;;;16.67;3.70;;;10.40;99.90;;;;;;5052595;28;20048;-71
2023/03/14 02:10:12;;;;;;;18.88;4.30;;;10.40;99.90;;;;;;5052170;28;20497;-71
2023/03/14 02:12:38;;;;;;;12.38;3.33;;;10.30;99.90;;;;;;5053883;28;20037;-71
2023/03/14 02:15:05;;;;;;;13.68;3.60;;;10.30;99.90;;;;;;5052237;28;20047;-71
2023/03/14 02:17:31;;;;;;;20.35;3.72;;;10.30;99.90;;;;;;5053634;28;20136;-71
2023/03/14 02:20:34;;;;;;;13.25;2.80;;;10.30;99.90;;;;;;5054470;28;20120;-72
2023/03/14 02:22:59;;;;;;;14.40;3.55;;;10.30;99.90;;;;;;5052620;28;20102;-72
2023/03/14 02:25:38;;;;;;;17.30;3.92;;;10.30;99.90;;;;;;5053456;28;20516;-72
2023/03/14 02:28:04;;;;;;;16.33;3.63;;;10.30;99.90;;;;;;5053364;28;20135;-72
2023/03/14 02:30:32;;;;;;;14.48;3.63;;;10.20;99.90;;;;;;5053660;28;20076;-72
2023/03/14 02:33:04;;;;;;;14.15;3.38;;;10.20;99.90;;;;;;5052167;28;20047;-72
2023/03/14 02:35:54;;;;;;;12.48;3.58;;;10.20;99.90;;;;;;5033330;28;20041;-72
2023/03/14 02:38:43;;;;;;;16.83;3.13;;;10.10;99.90;;;;;;5032692;28;20092;-72
2023/03/14 02:41:08;;;;;;;11.02;3.40;;;10.10;99.90;;;;;;5033657;28;20139;-72
2023/03/14 02:43:34;;;;;;;16.95;3.53;;;10.10;99.90;;;;;;5033083;28;20077;-72
2023/03/14 02:46:01;;;;;;;12.75;2.97;;;10.10;99.90;;;;;;5033185;28;20049;-72
2023/03/14 02:48:33;;;;;;;14.93;3.33;;;10.10;99.90;;;;;;5031845;28;20037;-72
2023/03/14 02:51:00;;;;;;;12.82;2.80;;;10.10;99.90;;;;;;5031855;28;20412;-72
2023/03/14 02:53:32;;;;;;;14.13;2.75;;;10.10;99.90;;;;;;5031615;28;20037;-72
2023/03/14 02:55:58;;;;;;;10.57;2.58;;;10.00;99.90;;;;;;5015431;28;20041;-72
2023/03/14 02:58:25;;;;;;;7.60;2.83;;;10.10;99.90;;;;;;5032917;28;20504;-72
2023/03/14 03:00:51;;;;;;;8.10;3.60;;;10.10;99.90;;;;;;5031955;28;20467;-72
2023/03/14 03:03:17;;;;;;;12.18;3.10;;;10.00;99.90;;;;;;5032725;28;20109;-72
2023/03/14 03:05:43;;;;;;;11.57;3.10;;;10.10;99.90;;;;;;5031408;28;20099;-72
2023/03/14 03:08:09;;;;;;;14.63;3.70;;;10.00;99.90;;;;;;5031306;28;20038;-72
2023/03/14 03:10:35;;;;;;;11.18;2.67;;;10.00;99.90;;;;;;5031521;28;20041;-72
2023/03/14 03:13:01;;;;;;;9.70;2.75;;;10.00;99.90;;;;;;5031433;28;20038;-71
2023/03/14 03:15:27;;;;;;;8.38;2.45;;;10.00;99.90;;;;;;5032480;28;20065;-71
2023/03/14 03:17:52;;;;;;;8.65;2.50;;;10.00;99.90;;;;;;5031578;28;20037;-70
2023/03/14 03:20:18;;;;;;;19.95;4.60;;;10.00;99.90;;;;;;5032640;28;20037;-70
2023/03/14 03:22:43;;;;;;;11.07;2.83;;;10.00;99.90;;;;;;5032680;28;20041;-71
2023/03/14 03:25:09;;;;;;;9.10;2.95;;;10.00;99.90;;;;;;5047255;28;20039;-70
2023/03/14 03:27:36;;;;;;;11.15;3.40;;;10.00;99.90;;;;;;5052317;28;20523;-70
2023/03/14 03:30:04;;;;;;;8.40;3.10;;;9.90;99.90;;;;;;5052256;28;20041;-70
2023/03/14 03:32:30;;;;;;;9.45;3.03;;;9.80;99.90;;;;;;5051134;28;20386;-70
2023/03/14 03:34:55;;;;;;;12.55;3.28;;;9.80;99.90;;;;;;5050664;28;20047;-70
2023/03/14 03:37:21;;;;;;;7.68;3.20;;;9.70;99.90;;;;;;5052342;28;20455;-70
2023/03/14 03:39:46;;;;;;;10.23;3.30;;;9.60;99.90;;;;;;5034245;28;20492;-70
2023/03/14 03:42:12;;;;;;;15.77;5.40;;;9.60;99.90;;;;;;5050886;28;20079;-70
2023/03/14 03:44:37;;;;;;;15.05;4.63;;;9.50;99.90;;;;;;5051820;28;20048;-70
2023/03/14 03:47:03;;;;;;;14.57;5.05;;;9.60;99.90;;;;;;5050672;28;20048;-70
2023/03/14 03:49:30;;;;;;;14.10;6.10;;;9.60;99.90;;;;;;5050563;28;20044;-70
2023/03/14 03:51:55;;;;;;;12.77;5.35;;;9.50;99.90;;;;;;5051466;28;20068;-71
2023/03/14 03:54:21;;;;;;;20.15;6.20;;;9.50;99.90;;;;;;5050624;28;20072;-71
2023/03/14 03:56:47;;;;;;;23.02;6.30;;;9.50;99.90;;;;;;5052003;28;20041;-71
2023/03/14 03:59:12;;;;;;;14.60;5.63;;;9.40;99.90;;;;;;5051810;28;20037;-71
2023/03/14 04:01:38;;;;;;;20.00;7.32;;;9.40;99.90;;;;;;5050756;28;20110;-70
2023/03/14 04:04:04;;;;;;;16.55;5.55;;;9.40;99.90;;;;;;5050183;28;20122;-71
2023/03/14 04:06:30;;;;;;;13.50;6.28;;;9.40;99.90;;;;;;5051940;28;20076;-71
2023/03/14 04:08:55;;;;;;;21.83;6.13;;;9.30;99.90;;;;;;5051418;28;20041;-71
2023/03/14 04:11:21;;;;;;;16.15;5.97;;;9.30;99.90;;;;;;5050394;28;20047;-70
2023/03/14 04:13:46;;;;;;;14.85;6.65;;;9.30;99.90;;;;;;5050066;28;20186;-71
2023/03/14 04:16:18;;;;;;;9.95;6.68;;;9.30;99.90;;;;;;5050605;28;20119;-70
2023/03/14 04:18:44;;;;;;;14.48;5.50;;;9.30;99.90;;;;;;5034059;28;20045;-70
2023/03/14 04:21:09;;;;;;;20.85;6.05;;;9.30;99.90;;;;;;5050321;28;20052;-70
2023/03/14 04:23:35;;;;;;;15.13;6.00;;;9.30;99.90;;;;;;5050170;28;20037;-70
2023/03/14 04:26:01;;;;;;;15.30;5.75;;;9.30;99.90;;;;;;5051496;28;20551;-71
2023/03/14 04:28:27;;;;;;;16.05;5.32;;;9.30;99.90;;;;;;5050113;28;20123;-70
2023/03/14 04:30:52;;;;;;;15.65;6.60;;;9.30;99.90;;;;;;5050196;28;20091;-71
2023/03/14 04:33:18;;;;;;;16.52;6.25;;;9.20;99.90;;;;;;5050256;28;20049;-71
2023/03/14 04:35:44;;;;;;;16.05;6.43;;;9.30;99.90;;;;;;5050259;28;20557;-71
2023/03/14 04:38:10;;;;;;;15.57;6.80;;;9.30;99.90;;;;;;5050047;28;20076;-71
2023/03/14 04:40:40;;;;;;;23.48;8.00;;;9.20;99.90;;;;;;5051397;28;20029;-71
2023/03/14 04:43:07;;;;;;;19.75;7.82;;;9.30;99.90;;;;;;5050191;28;20033;-71
2023/03/14 04:45:33;;;;;;;16.23;6.80;;;9.30;99.90;;;;;;5051552;28;20047;-71
2023/03/14 04:47:58;;;;;;;9.52;6.03;;;9.20;99.90;;;;;;5049831;28;20033;-71
2023/03/14 04:50:24;;;;;;;16.08;8.15;;;9.30;99.90;;;;;;5049823;28;20049;-71
2023/03/14 04:52:49;;;;;;;18.30;6.63;;;9.20;99.90;;;;;;5049986;28;20043;-71
2023/03/14 04:55:15;;;;;;;14.77;6.78;;;9.20;99.90;;;;;;5051003;28;20124;-71
2023/03/14 04:57:41;;;;;;;12.90;5.57;;;9.20;99.90;;;;;;5051130;28;20037;-71
2023/03/14 05:00:07;;;;;;;15.73;6.28;;;9.20;99.90;;;;;;5051196;28;20573;-71
2023/03/14 05:02:34;;;;;;;17.02;6.07;;;9.20;99.90;;;;;;5050148;28;20067;-71
2023/03/14 05:05:00;;;;;;;22.23;6.70;;;9.20;99.90;;;;;;5054856;28;20412;-73
2023/03/14 05:07:26;;;;;;;15.90;6.25;;;9.20;99.90;;;;;;5055135;28;20051;-71
2023/03/14 05:09:53;;;;;;;13.52;5.90;;;9.20;99.90;;;;;;5053274;28;20032;-71
2023/03/14 05:12:19;;;;;;;13.77;5.75;;;9.20;99.90;;;;;;5053574;28;20041;-71
2023/03/14 05:14:44;;;;;;;13.88;5.60;;;9.20;99.90;;;;;;5054378;28;20103;-71
2023/03/14 05:17:11;;;;;;;13.43;5.32;;;9.20;99.90;;;;;;5054780;28;20489;-72
2023/03/14 05:19:36;;;;;;;16.95;6.53;;;9.20;99.90;;;;;;5054953;28;20056;-71
2023/03/14 05:22:02;;;;;;;17.35;6.00;;;9.20;99.90;;;;;;5054873;28;20033;-71
2023/03/14 05:24:28;;;;;;;20.02;6.50;;;9.20;99.90;;;;;;5054595;28;20044;-71
2023/03/14 05:26:54;;;;;;;16.52;6.20;;;9.10;99.90;;;;;;5053799;28;20045;-71
2023/03/14 05:29:19;;;;;;;12.13;5.90;;;9.20;99.90;;;;;;5053393;28;20083;-70
2023/03/14 05:31:45;;;;;;;13.93;5.68;;;9.10;99.90;;;;;;5053625;28;20128;-71
2023/03/14 05:34:10;;;;;;;17.02;6.00;;;9.20;99.90;;;;;;5053106;28;20044;-71
2023/03/14 05:36:36;;;;;;;15.60;6.55;;;9.20;99.90;;;;;;5053285;28;20049;-71
2023/03/14 05:39:02;;;;;;;16.58;7.05;;;9.20;99.90;;;;;;5054547;28;20037;-71
2023/03/14 05:41:27;;;;;;;14.82;7.65;;;9.20;99.90;;;;;;5053284;28;20116;-71
2023/03/14 05:43:53;;;;;;;15.40;6.57;;;9.10;99.90;;;;;;5053052;28;20091;-72
2023/03/14 05:46:18;;;;;;;13.43;6.30;;;9.10;99.90;;;;;;5052982;28;20037;-71
2023/03/14 05:48:44;;;;;;;17.83;6.35;;;9.10;99.90;;;;;;5036321;28;20636;-71
2023/03/14 05:51:09;;;;;;;12.30;6.50;;;9.20;99.90;;;;;;5054330;28;20500;-71
2023/03/14 05:53:35;;;;;;;13.02;6.47;;;9.10;99.90;;;;;;5053828;28;20064;-72
2023/03/14 05:56:00;;;;;;;16.95;6.72;;;9.10;99.90;;;;;;5053964;28;20041;-71
2023/03/14 05:58:26;;;;;;;13.80;7.40;;;9.10;99.90;;;;;;5053872;28;20049;-71
2023/03/14 06:00:51;;;;;;;13.07;6.80;;;9.10;99.90;;;;;;5054145;28;20090;-71
2023/03/14 06:03:17;;;;;;;16.27;7.50;;;9.10;99.90;;;;;;5052370;28;20054;-71
2023/03/14 06:05:43;;;;;;;13.02;7.18;;;9.20;99.90;;;;;;5053689;28;20077;-71
2023/03/14 06:08:08;;;;;;;13.77;7.30;;;9.10;99.90;;;;;;5052405;28;20051;-72
2023/03/14 06:10:35;;;;;;;13.55;6.25;;;9.10;99.90;;;;;;5061605;22;20133;-71
2023/03/14 06:13:01;;;;;;;11.25;6.05;;;9.10;99.90;;;;;;5053932;28;20094;-71
2023/03/14 06:15:27;;;;;;;11.52;7.05;;;9.10;99.90;;;;;;5053133;28;20045;-71
2023/03/14 06:17:57;;;;;;;14.38;6.75;;;9.10;99.90;;;;;;5053388;28;20455;-71
2023/03/14 06:20:22;;;;;;;13.88;6.47;;;9.20;99.90;;;;;;5053429;28;20048;-72
2023/03/14 06:22:48;;;;;;;16.83;6.72;;;9.10;99.90;;;;;;5053878;28;20037;-71
2023/03/14 06:25:14;;;;;;;13.00;6.55;;;9.10;99.90;;;;;;5053223;28;20052;-72
2023/03/14 06:27:39;;;;;;;15.02;5.68;;;9.10;99.90;;;;;;5035619;28;20431;-72
2023/03/14 06:30:05;;;;;;;8.93;5.72;;;9.10;99.90;;;;;;5035194;28;20053;-72
2023/03/14 06:32:31;;;;;;;11.93;6.15;;;9.10;99.90;;;;;;5053557;28;20049;-72
2023/03/14 06:35:00;;;;;;;11.57;6.05;;;9.10;99.90;;;;;;5035249;28;20045;-72
2023/03/14 06:37:29;;;;;;;13.98;5.97;;;9.10;99.90;;;;;;5053190;28;20552;-72
2023/03/14 06:39:55;;;;;;;16.85;5.03;;;9.00;99.90;;;;;;5053100;28;20491;-72
2023/03/14 06:42:21;;;;;;;10.50;5.30;;;9.10;99.90;;;;;;5053402;28;20052;-72
2023/03/14 06:44:47;;;;;;;14.32;5.20;;;9.10;99.90;;;;;;5053026;28;20102;-72
2023/03/14 06:47:13;;;;;;;11.52;4.72;;;9.10;99.90;;;;;;5053169;28;20037;-71
2023/03/14 06:49:39;;;;;;;12.40;2.65;;;9.10;99.90;;;;;;5035215;28;20037;-72
2023/03/14 06:52:04;;;;;;;7.82;1.35;;;9.00;99.90;;;;;;5035403;28;20071;-72
2023/03/14 06:54:30;;;;;;;3.13;1.02;;;8.70;99.90;;;;;;5052719;28;20408;-71
2023/03/14 06:56:56;;;;;;;3.70;1.00;;;8.30;99.90;;;;;;5052909;28;20095;-71
2023/03/14 06:59:21;;;;;;;7.05;1.65;;;8.10;99.90;;;;;;5018713;28;20106;-71
2023/03/14 07:01:48;;;;;;;5.20;1.45;;;7.90;99.90;;;;;;5052997;28;20518;-71
2023/03/14 07:04:13;;;;;;;12.02;1.80;;;7.70;99.90;;;;;;5052603;28;20068;-71
2023/03/14 07:06:43;;;;;;;10.20;1.50;;;7.70;99.90;;;;;;5052834;28;20071;-71
2023/03/14 07:09:12;;;;;;;11.85;2.58;;;7.40;99.90;;;;;;5035049;28;20049;-71
2023/03/14 07:11:37;;;;;;;8.88;2.13;;;7.10;99.90;;;;;;5034809;28;20040;-71
2023/03/14 07:14:03;;;;;;;13.75;2.85;;;7.00;99.90;;;;;;5034684;28;20044;-71
2023/03/14 07:16:32;;;;;;;13.88;1.80;;;6.60;99.90;;;;;;5052623;28;20033;-71
2023/03/14 07:18:58;;;;;;;7.88;2.08;;;6.40;99.90;;;;;;5034452;28;20090;-71
2023/03/14 07:21:24;;;;;;;12.75;2.20;;;6.20;99.90;;;;;;5052512;28;20048;-70
2023/03/14 07:23:49;;;;;;;9.38;1.52;;;6.10;99.90;;;;;;5052068;28;20036;-71
2023/03/14 07:26:15;;;;;;;6.68;1.38;;;5.90;99.90;;;;;;5033748;28;20084;-71
2023/03/14 07:28:41;;;;;;;11.30;1.92;;;5.70;99.90;;;;;;5034418;28;20128;-70
2023/03/14 07:31:07;;;;;;;9.85;2.25;;;5.60;99.90;;;;;;5052318;28;20033;-71
2023/03/14 07:33:32;;;;;;;8.02;2.20;;;5.40;99.90;;;;;;5051935;28;20036;-71
2023/03/14 07:35:58;;;;;;;9.18;1.33;;;5.40;99.90;;;;;;5051697;28;20412;-71
2023/03/14 07:38:24;;;;;;;12.68;2.85;;;5.10;99.90;;;;;;5033932;28;20123;-71
2023/03/14 07:40:50;;;;;;;8.63;1.20;;;5.10;99.90;;;;;;5051631;28;20117;-71
2023/03/14 07:43:15;;;;;;;5.65;1.08;;;5.10;99.90;;;;;;5033565;28;20032;-70
2023/03/14 07:45:41;;;;;;;6.38;1.25;;;4.90;99.90;;;;;;5051751;28;20554;-70
2023/03/14 07:48:06;;;;;;;7.95;1.23;;;4.80;99.90;;;;;;5051887;28;20032;-71
2023/03/14 07:50:32;;;;;;;3.60;0.73;;;4.80;99.90;;;;;;5034189;28;20049;-70
2023/03/14 07:52:58;;;;;;;4.25;0.80;;;4.80;99.90;;;;;;5034004;28;20041;-70
2023/03/14 07:55:23;;;;;;;4.78;1.00;;;4.70;99.90;;;;;;5033979;28;20056;-70
2023/03/14 07:57:49;;;;;;;1.77;0.90;;;4.60;99.90;;;;;;5051887;28;20037;-70
2023/03/14 08:00:14;;;;;;;4.10;0.70;;;4.60;99.90;;;;;;5051738;28;20048;-70
2023/03/14 08:02:41;;;;;;;1.85;0.70;;;4.60;99.90;;;;;;5051660;28;20033;-71
2023/03/14 08:05:07;;;;;;;4.10;0.93;;;4.60;99.90;;;;;;5051350;28;20512;-70
2023/03/14 08:07:32;;;;;;;5.60;0.80;;;4.60;99.90;;;;;;5051912;28;20067;-70
2023/03/14 08:09:58;;;;;;;5.72;0.63;;;4.60;99.90;;;;;;5051413;28;20453;-70
2023/03/14 08:12:23;;;;;;;6.85;1.38;;;4.60;99.90;;;;;;5051735;28;20037;-71
2023/03/14 08:14:49;;;;;;;4.35;0.57;;;4.60;99.90;;;;;;5033471;28;20447;-72
2023/03/14 08:17:14;;;;;;;2.50;0.80;;;4.50;99.90;;;;;;5033738;28;20051;-70
2023/03/14 08:19:41;;;;;;;1.98;0.77;;;4.60;99.90;;;;;;5051480;28;20132;-70
2023/03/14 08:22:07;;;;;;;5.75;1.60;;;4.60;99.90;;;;;;5051459;28;20041;-70
2023/03/14 08:24:32;;;;;;;4.35;0.70;;;4.70;99.90;;;;;;5033545;28;20043;-70
2023/03/14 08:26:58;;;;;;;4.57;0.75;;;4.70;99.90;;;;;;5051518;28;20041;-70
2023/03/14 08:29:24;;;;;;;6.15;0.70;;;4.80;99.90;;;;;;5033360;28;20045;-70
2023/03/14 08:31:49;;;;;;;6.65;0.85;;;4.80;99.90;;;;;;5033769;28;20056;-70
2023/03/14 08:34:15;;;;;;;5.40;0.82;;;4.80;99.90;;;;;;5051019;28;20097;-70
2023/03/14 08:36:41;;;;;;;5.72;0.85;;;4.90;99.90;;;;;;5051572;28;20037;-70
2023/03/14 08:39:07;;;;;;;5.70;0.98;;;4.90;99.90;;;;;;5037681;28;20109;-70
2023/03/14 08:41:33;;;;;;;4.53;1.27;;;4.90;99.90;;;;;;5037609;28;20040;-70
2023/03/14 08:43:58;;;;;;;8.30;1.00;;;5.00;99.90;;;;;;5055306;28;20068;-70
2023/03/14 08:46:24;;;;;;;6.88;1.30;;;5.10;99.90;;;;;;5055433;28;20040;-70
2023/03/14 08:48:49;;;;;;;5.47;1.25;;;5.10;99.90;;;;;;5055237;28;20037;-70
2023/03/14 08:51:15;;;;;;;6.47;1.20;;;5.20;99.90;;;;;;5037726;28;20087;-70
2023/03/14 08:53:41;;;;;;;9.23;1.58;;;5.30;99.90;;;;;;5037172;28;20128;-70
2023/03/14 08:56:09;;;;;;;14.50;2.13;;;5.30;99.90;;;;;;5037415;28;20037;-70
2023/03/14 08:58:37;;;;;;;8.60;1.90;;;5.40;99.90;;;;;;5055120;28;20045;-70
2023/03/14 09:01:05;;;;;;;7.95;1.63;;;5.60;99.90;;;;;;5037370;28;20098;-70
2023/03/14 09:03:30;;;;;;;9.00;2.08;;;5.70;99.90;;;;;;5054142;28;20044;-70
2023/03/14 09:05:56;;;;;;;8.00;1.55;;;5.70;99.90;;;;;;5054522;28;20465;-70
2023/03/14 09:08:21;;;;;;;11.65;1.70;;;5.80;99.90;;;;;;5036612;28;20095;-70
2023/03/14 09:10:47;;;;;;;7.15;1.75;;;5.80;99.90;;;;;;5054318;28;20036;-70
2023/03/14 09:13:12;;;;;;;11.00;2.10;;;5.90;99.90;;;;;;5017304;28;20037;-70
2023/03/14 09:15:38;;;;;;;15.15;2.75;;;6.00;99.90;;;;;;5053908;28;20176;-70
2023/03/14 09:18:04;;;;;;;11.38;2.47;;;5.90;99.90;;;;;;5036518;28;20029;-70
2023/03/14 09:20:29;;;;;;;11.75;1.92;;;6.10;99.90;;;;;;5053877;28;20036;-70
2023/03/14 09:22:55;;;;;;;11.27;2.15;;;6.10;99.90;;;;;;5054403;28;20063;-70
2023/03/14 09:25:20;;;;;;;15.93;2.45;;;6.30;99.90;;;;;;5049742;28;20516;-71
2023/03/14 09:27:46;;;;;;;19.38;2.67;;;6.30;99.90;;;;;;5054486;28;20029;-71
2023/03/14 09:30:12;;;;;;;12.55;2.65;;;6.30;99.90;;;;;;5024576;28;20051;-71
2023/03/14 09:32:37;;;;;;;14.15;2.80;;;6.40;99.90;;;;;;5028612;28;20062;-70
2023/03/14 09:35:03;;;;;;;13.40;3.55;;;6.40;99.90;;;;;;5032910;28;20033;-70
2023/03/14 09:37:29;;;;;;;21.45;3.08;;;6.50;99.90;;;;;;5053796;28;20039;-70
2023/03/14 09:39:54;;;;;;;15.50;2.97;;;6.40;99.90;;;;;;5053810;28;20120;-70
2023/03/14 09:42:25;;;;;;;20.10;3.25;;;6.40;99.90;;;;;;5053127;28;20037;-70
2023/03/14 09:45:01;;;;;;;15.25;3.38;;;6.40;99.90;;;;;;5035203;28;20029;-70
2023/03/14 09:47:28;;;;;;;16.70;3.35;;;6.40;99.90;;;;;;5051162;28;20033;-70
2023/03/14 09:49:53;;;;;;;19.25;3.97;;;6.40;99.90;;;;;;5052488;28;20563;-70
2023/03/14 09:52:28;;;;;;;19.23;4.45;;;6.40;99.90;;;;;;5053572;28;20120;-70
2023/03/14 09:55:17;;;;;;;17.75;4.18;;;6.40;99.90;;;;;;5050440;28;20048;-70
2023/03/14 09:57:44;;;;;;;16.10;3.08;;;6.40;99.90;;;;;;5050255;28;20033;-70
2023/03/14 10:00:18;;;;;;;25.38;6.28;;;6.50;99.90;;;;;;5052723;28;20041;-70
2023/03/14 10:02:51;;;;;;;20.52;3.42;;;6.60;99.90;;;;;;5035264;28;20032;-71
2023/03/14 10:05:20;;;;;;;18.58;4.00;;;6.70;99.90;;;;;;5052048;28;20048;-71
2023/03/14 10:07:45;;;;;;;22.13;4.03;;;6.70;99.90;;;;;;5035216;28;20051;-70
2023/03/14 10:10:15;;;;;;;20.08;4.68;;;6.80;99.90;;;;;;5052356;28;20123;-71
2023/03/14 10:12:44;;;;;;;18.85;3.33;;;6.80;99.90;;;;;;5053496;28;20111;-71
2023/03/14 10:15:14;;;;;;;21.83;3.90;;;6.80;99.90;;;;;;5034342;28;20037;-71
2023/03/14 10:17:50;;;;;;;17.75;2.65;;;6.90;99.90;;;;;;5034916;28;20091;-71
2023/03/14 10:20:34;;;;;;;23.83;3.60;;;6.90;99.90;;;;;;5051530;28;20041;-71
2023/03/14 10:23:03;;;;;;;30.05;5.10;;;6.80;99.90;;;;;;5032941;28;20076;-71
2023/03/14 10:25:31;;;;;;;18.52;3.55;;;6.70;99.90;;;;;;5034440;28;20029;-71
2023/03/14 10:27:57;;;;;;;16.83;3.70;;;6.70;99.90;;;;;;5052913;28;20037;-71
2023/03/14 10:30:45;;;;;;;27.00;5.65;;;6.70;99.90;;;;;;5052600;28;20120;-71
2023/03/14 10:33:18;;;;;;;19.83;3.50;;;6.70;99.90;;;;;;5034447;28;20068;-71
2023/03/14 10:35:44;;;;;;;20.75;3.50;;;6.60;99.90;;;;;;5034763;28;20511;-71
2023/03/14 10:38:15;;;;;;;23.02;3.53;;;6.60;99.90;;;;;;5052656;28;20464;-71
2023/03/14 10:40:49;;;;;;;15.20;3.60;;;6.70;99.90;;;;;;5052735;28;20063;-71
2023/03/14 10:43:21;;;;;;;16.05;2.70;;;6.80;99.90;;;;;;5052391;28;20061;-71
2023/03/14 10:46:08;;;;;;;19.92;3.15;;;6.70;99.90;;;;;;5034210;28;20060;-71
2023/03/14 10:48:37;;;;;;;11.20;2.65;;;6.70;99.90;;;;;;5028618;28;20103;-71
2023/03/14 10:51:16;;;;;;;13.18;2.53;;;6.80;99.90;;;;;;5052571;28;20037;-71
2023/03/14 10:53:43;;;;;;;8.02;2.10;;;6.80;99.90;;;;;;5045808;28;20064;-71
2023/03/14 10:56:13;;;;;;;16.50;3.38;;;6.80;99.90;;;;;;5051901;28;20496;-71
2023/03/14 10:58:42;;;;;;;21.15;3.22;;;6.80;99.90;;;;;;5052468;28;20037;-71
2023/03/14 11:01:23;;;;;;;11.80;3.35;;;6.80;99.90;;;;;;5050915;28;20123;-71
2023/03/14 11:04:03;;;;;;;12.55;2.78;;;6.90;99.90;;;;;;5051907;28;20423;-71
2023/03/14 11:07:01;;;;;;;11.05;2.95;;;6.90;99.90;;;;;;5051827;28;20107;-71
2023/03/14 11:09:42;;;;;;;11.63;2.88;;;7.10;99.90;;;;;;5033764;28;20416;-71
2023/03/14 11:12:41;;;;;;;18.67;3.30;;;6.90;99.60;;;;;;5050239;28;20412;-71
2023/03/14 11:15:23;;;;;;;11.43;3.08;;;6.80;99.90;;;;;;5048761;28;20067;-71
2023/03/14 11:18:12;;;;;;;11.60;2.05;;;6.70;98.20;;;;;;5051719;28;20039;-72
2023/03/14 11:20:58;;;;;;;14.60;2.85;;;6.70;97.60;;;;;;5051454;28;20047;-71
2023/03/14 11:23:35;;;;;;;12.48;1.88;;;6.90;97.70;;;;;;5051666;28;20040;-71
2023/03/14 11:26:27;;;;;;;14.20;1.92;;;6.80;94.80;;;;;;5033443;28;20037;-71
2023/03/14 11:29:01;;;;;;;8.88;1.60;;;6.90;94.50;;;;;;5031117;28;20076;-71
2023/03/14 11:31:28;;;;;;;;;;;7.00;94.10;;;;;;5051997;28;20091;-71
2023/03/14 11:34:15;;;;;;;6.10;1.40;;;7.00;93.60;;;;;;5032354;28;19959;-71
2023/03/14 11:36:53;;;;;;;5.50;1.58;;;7.00;94.50;;;;;;5030124;28;20064;-71
2023/03/14 11:39:20;;;;;;;6.93;1.50;;;7.00;94.10;;;;;;5051477;28;20499;-71
2023/03/14 11:41:48;;;;;;;4.90;1.20;;;6.90;92.20;;;;;;5033554;28;20095;-71
2023/03/14 11:44:22;;;;;;;8.32;1.45;;;6.80;91.10;;;;;;5051094;28;20048;-70
2023/03/14 11:47:04;;;;;;;10.95;1.70;;;6.80;91.30;;;;;;5051797;28;20458;-71
2023/03/14 11:49:32;;;;;;;9.98;1.75;;;6.80;90.70;;;;;;5033508;28;20447;-71
2023/03/14 11:52:08;;;;;;;7.97;1.20;;;6.90;90.00;;;;;;5033590;28;20045;-71
2023/03/14 11:55:02;;;;;;;9.60;1.98;;;6.80;87.40;;;;;;5043619;28;20025;-71
2023/03/14 11:57:28;;;;;;;4.45;1.80;;;7.00;86.60;;;;;;5051989;28;20033;-71
2023/03/14 12:00:04;;;;;;;3.72;1.27;;;7.00;88.70;;;;;;5051843;28;20087;-70
2023/03/14 12:02:30;;;;;;;5.85;1.73;;;7.00;87.80;;;;;;5034252;28;20456;-71
2023/03/14 12:05:31;;;;;;;9.13;1.65;;;7.00;88.10;;;;;;5033444;28;20091;-70
2023/03/14 12:08:08;;;;;;;6.68;1.25;;;6.90;88.70;;;;;;4970732;28;20055;-71
2023/03/14 12:10:51;;;;;;;11.02;2.58;;;6.90;88.90;;;;;;5049656;22;20061;-70
2023/03/14 12:13:18;;;;;;;6.93;1.52;;;6.90;89.20;;;;;;5049771;28;20041;-72
2023/03/14 12:15:50;;;;;;;13.25;1.90;;;6.90;90.10;;;;;;5051727;28;20040;-70
2023/03/14 12:18:25;;;;;;;10.75;2.10;;;7.10;90.60;;;;;;5050638;28;20068;-70
2023/03/14 12:20:58;;;;;;;9.10;2.00;;;7.40;91.00;;;;;;5033284;28;20045;-70
2023/03/14 12:23:25;;;;;;;5.25;1.38;;;7.60;91.30;;;;;;5029616;28;20037;-71
2023/03/14 12:26:12;;;;;;;10.60;1.67;;;7.50;89.30;;;;;;5031152;28;20038;-71
2023/03/14 12:28:39;;;;;;;8.57;1.98;;;7.50;90.00;;;;;;5028465;28;20455;-70
2023/03/14 12:31:29;;;;;;;7.63;2.05;;;7.30;90.90;;;;;;5031219;28;20099;-70
2023/03/14 12:34:25;;;;;;;11.20;1.90;;;7.20;91.80;;;;;;5029349;28;20073;-70
2023/03/14 12:37:15;;;;;;;8.48;1.90;;;7.10;92.40;;;;;;5030093;28;20240;-69
2023/03/14 12:40:06;;;;;;;7.35;1.48;;;7.10;93.50;;;;;;5031559;28;20034;-70
2023/03/14 12:43:01;;;;;;;8.82;3.35;;;7.20;94.20;;;;;;5022374;28;20093;-70
2023/03/14 12:45:35;;;;;;;7.53;1.98;;;7.10;92.80;;;;;;5030315;28;20060;-69
2023/03/14 12:48:10;;;;;;;15.35;2.55;;;7.00;93.60;;;;;;5031489;28;20041;-71
2023/03/14 12:50:53;;;;;;;9.95;2.83;;;6.90;94.70;;;;;;5030154;28;20417;-71
2023/03/14 12:53:43;;;;;;;10.07;2.42;;;6.80;95.50;;;;;;5031500;28;20038;-70
2023/03/14 12:56:20;;;;;;;17.02;3.08;;;6.70;96.50;;;;;;5029636;28;20433;-71
2023/03/14 12:59:09;;;;;;;13.98;2.63;;;6.60;96.90;;;;;;5029729;28;20042;-71